Time,TemperatureF,DewpointF,PressureIn,WindDirection,WindDirectionDegrees,WindSpeedMPH,WindSpeedGustMPH,Humidity,HourlyPrecipIn,Conditions,Clouds,dailyrainin,SolarRadiationWatts/m^2,SoftwareType,DateUTC
2013-09-21 00:05:00,50.4,42.4,29.56,ESE,116,0.0,0.0,74,0.00,,,0.00,0,Wunderground v.1.15,2013-09-21 07:05:00,
2013-09-21 00:15:00,49.8,42.2,29.56,ESE,116,0.0,0.0,75,0.00,,,0.00,0,Wunderground v.1.15,2013-09-21 07:15:00,
2013-09-21 00:25:00,49.5,41.9,29.56,ESE,116,0.0,0.0,75,0.00,,,0.00,0,Wunderground v.1.15,2013-09-21 07:25:00,
2013-09-21 00:35:00,49.4,42.1,29.57,ESE,116,0.0,0.0,76,0.00,,,0.00,0,Wunderground v.1.15,2013-09-21 07:35:00,
2013-09-21 00:40:00,49.2,42.0,29.57,ESE,116,0.0,0.0,76,0.00,,,0.00,0,Wunderground v.1.15,2013-09-21 07:40:00,
2013-09-21 00:50:00,48.9,42.0,29.56,ESE,116,0.0,0.0,77,0.00,,,0.00,0,Wunderground v.1.15,2013-09-21 07:50:00,
2013-09-21 01:00:00,48.8,42.2,29.58,ESE,116,0.0,0.0,78,0.00,,,0.00,0,Wunderground v.1.15,2013-09-21 08:00:00,
2013-09-21 01:05:00,48.9,42.0,29.57,ESE,116,0.0,0.0,77,0.00,,,0.00,0,Wunderground v.1.15,2013-09-21 08:05:00,
2013-09-21 01:15:00,49.1,42.5,29.58,ESE,116,0.0,0.0,78,0.00,,,0.00,0,Wunderground v.1.15,2013-09-21 08:15:00,
2013-09-21 01:25:00,49.2,42.3,29.58,ESE,116,0.0,0.0,77,0.00,,,0.00,0,Wunderground v.1.15,2013-09-21 08:25:00,
2013-09-21 01:35:00,49.4,42.5,29.57,ESE,116,0.0,0.0,77,0.00,,,0.00,0,Wunderground v.1.15,2013-09-21 08:35:00,
2013-09-21 01:45:00,49.6,43.0,29.56,ESE,116,0.0,0.0,78,0.00,,,0.00,0,Wunderground v.1.15,2013-09-21 08:45:00,
2013-09-21 01:50:00,49.6,42.7,29.56,ESE,116,0.0,0.0,77,0.00,,,0.00,0,Wunderground v.1.15,2013-09-21 08:50:00,
2013-09-21 02:00:00,50.1,42.8,29.56,ESE,116,0.0,0.0,76,0.00,,,0.00,0,Wunderground v.1.15,2013-09-21 09:00:00,
2013-09-21 02:10:00,50.2,42.9,29.56,ESE,116,0.0,0.0,76,0.00,,,0.00,0,Wunderground v.1.15,2013-09-21 09:10:00,
2013-09-21 02:20:00,50.5,43.2,29.56,ESE,116,0.0,0.0,76,0.00,,,0.00,0,Wunderground v.1.15,2013-09-21 09:20:00,
2013-09-21 02:30:00,50.7,43.8,29.56,ESE,116,0.0,0.0,77,0.00,,,0.00,0,Wunderground v.1.15,2013-09-21 09:30:00,
2013-09-21 02:40:00,50.7,43.4,29.56,ESE,116,0.0,0.0,76,0.00,,,0.00,0,Wunderground v.1.15,2013-09-21 09:40:00,
2013-09-21 02:50:00,50.8,43.5,29.57,ESE,116,0.0,0.0,76,0.00,,,0.00,0,Wunderground v.1.15,2013-09-21 09:50:00,
2013-09-21 03:00:00,50.8,43.8,29.57,ESE,116,0.0,0.0,77,0.00,,,0.00,0,Wunderground v.1.15,2013-09-21 10:00:00,
2013-09-21 03:10:00,50.8,43.8,29.57,ESE,116,0.0,0.0,77,0.00,,,0.00,0,Wunderground v.1.15,2013-09-21 10:10:00,
2013-09-21 03:20:00,50.8,44.2,29.56,ESE,116,0.0,0.0,78,0.00,,,0.00,0,Wunderground v.1.15,2013-09-21 10:20:00,
2013-09-21 03:25:00,50.8,44.2,29.56,ESE,116,0.0,0.0,78,0.00,,,0.00,0,Wunderground v.1.15,2013-09-21 10:25:00,
2013-09-21 03:35:00,50.7,44.4,29.56,ESE,116,0.0,0.0,79,0.00,,,0.00,0,Wunderground v.1.15,2013-09-21 10:35:00,
2013-09-21 03:40:00,50.5,44.2,29.56,ESE,116,0.0,0.0,79,0.00,,,0.00,0,Wunderground v.1.15,2013-09-21 10:40:00,
2013-09-21 03:50:00,50.5,44.2,29.56,ESE,116,0.0,0.0,79,0.00,,,0.00,0,Wunderground v.1.15,2013-09-21 10:50:00,
2013-09-21 03:55:00,50.7,44.4,29.56,ESE,116,0.0,0.0,79,0.00,,,0.00,0,Wunderground v.1.15,2013-09-21 10:55:00,
2013-09-21 04:05:00,50.5,43.9,29.55,ESE,116,0.0,0.0,78,0.00,,,0.00,0,Wunderground v.1.15,2013-09-21 11:05:00,
2013-09-21 04:15:00,50.5,44.2,29.55,ESE,116,0.0,0.0,79,0.00,,,0.00,0,Wunderground v.1.15,2013-09-21 11:15:00,
2013-09-21 04:20:00,50.7,44.4,29.55,ESE,116,0.0,0.0,79,0.00,,,0.00,0,Wunderground v.1.15,2013-09-21 11:20:00,
2013-09-21 04:30:00,50.5,44.2,29.55,ESE,116,0.0,0.0,79,0.00,,,0.00,0,Wunderground v.1.15,2013-09-21 11:30:00,
2013-09-21 04:40:00,50.4,44.1,29.55,ESE,116,0.0,0.0,79,0.00,,,0.00,0,Wunderground v.1.15,2013-09-21 11:40:00,
2013-09-21 04:50:00,50.4,44.1,29.56,ESE,116,0.0,0.0,79,0.00,,,0.00,0,Wunderground v.1.15,2013-09-21 11:50:00,
2013-09-21 05:00:00,50.2,44.3,29.56,ESE,116,0.0,0.0,80,0.00,,,0.00,0,Wunderground v.1.15,2013-09-21 12:00:00,
2013-09-21 05:10:00,50.2,44.3,29.58,SSE,152,0.0,0.0,80,0.00,,,0.00,0,Wunderground v.1.15,2013-09-21 12:10:00,
2013-09-21 05:20:00,50.1,44.2,29.58,SSE,152,0.0,0.0,80,0.00,,,0.00,0,Wunderground v.1.15,2013-09-21 12:20:00,
2013-09-21 05:25:00,50.1,44.2,29.58,SSE,152,0.0,0.0,80,0.00,,,0.00,0,Wunderground v.1.15,2013-09-21 12:25:00,
2013-09-21 05:35:00,50.1,44.2,29.58,SSE,152,0.0,0.0,80,0.00,,,0.00,0,Wunderground v.1.15,2013-09-21 12:35:00,
2013-09-21 05:45:00,50.1,44.5,29.58,SSE,152,0.0,0.0,81,0.00,,,0.00,0,Wunderground v.1.15,2013-09-21 12:45:00,
2013-09-21 05:55:00,49.9,44.3,29.58,SSE,152,0.0,0.0,81,0.00,,,0.00,0,Wunderground v.1.15,2013-09-21 12:55:00,
2013-09-21 06:05:00,49.8,44.5,29.60,SSE,152,0.0,0.0,82,0.00,,,0.00,0,Wunderground v.1.15,2013-09-21 13:05:00,
2013-09-21 06:15:00,49.5,44.2,29.60,SSE,152,0.0,0.0,82,0.00,,,0.00,0,Wunderground v.1.15,2013-09-21 13:15:00,
2013-09-21 06:20:00,49.5,44.2,29.60,SSE,152,0.0,0.0,82,0.00,,,0.00,0,Wunderground v.1.15,2013-09-21 13:20:00,
2013-09-21 06:30:00,49.5,44.6,29.60,SSE,152,0.0,0.0,83,0.00,,,0.00,0,Wunderground v.1.15,2013-09-21 13:30:00,
2013-09-21 06:40:00,49.4,44.5,29.60,SSE,152,0.0,0.0,83,0.00,,,0.00,0,Wunderground v.1.15,2013-09-21 13:40:00,
2013-09-21 06:50:00,49.2,44.3,29.61,SSE,152,0.0,0.0,83,0.00,,,0.00,0,Wunderground v.1.15,2013-09-21 13:50:00,
2013-09-21 06:55:00,49.1,44.2,29.61,SSE,152,0.0,0.0,83,0.00,,,0.00,0,Wunderground v.1.15,2013-09-21 13:55:00,
2013-09-21 07:00:00,48.9,44.3,29.61,SSE,152,0.0,0.0,84,0.00,,,0.00,0,Wunderground v.1.15,2013-09-21 14:00:00,
2013-09-21 07:05:00,48.9,44.3,29.62,SSE,152,0.0,0.0,84,0.00,,,0.00,0,Wunderground v.1.15,2013-09-21 14:05:00,
2013-09-21 07:11:00,48.8,44.2,29.62,SSE,152,0.0,0.0,84,0.00,,,0.00,5,Wunderground v.1.15,2013-09-21 14:11:00,
2013-09-21 07:20:00,48.6,44.0,29.62,SSE,152,0.0,0.0,84,0.00,,,0.00,16,Wunderground v.1.15,2013-09-21 14:20:00,
2013-09-21 07:30:00,48.8,44.5,29.62,SSE,152,0.0,0.0,85,0.00,,,0.00,26,Wunderground v.1.15,2013-09-21 14:30:00,
2013-09-21 07:35:00,48.8,44.5,29.63,SSE,152,0.0,0.0,85,0.00,,,0.00,25,Wunderground v.1.15,2013-09-21 14:35:00,
2013-09-21 07:45:00,48.9,44.6,29.62,SSE,152,0.0,0.0,85,0.00,,,0.00,14,Wunderground v.1.15,2013-09-21 14:45:00,
2013-09-21 07:55:00,48.9,44.6,29.62,SSE,152,0.0,0.0,85,0.00,,,0.00,18,Wunderground v.1.15,2013-09-21 14:55:00,
2013-09-21 08:05:00,48.9,44.6,29.63,SSE,152,0.0,0.0,85,0.00,,,0.00,40,Wunderground v.1.15,2013-09-21 15:05:00,
2013-09-21 08:15:00,49.1,45.1,29.63,SSE,152,0.0,0.0,86,0.00,,,0.00,37,Wunderground v.1.15,2013-09-21 15:15:00,
2013-09-21 08:20:00,49.4,45.4,29.64,SSE,152,0.0,0.0,86,0.00,,,0.00,26,Wunderground v.1.15,2013-09-21 15:20:00,
2013-09-21 08:30:00,49.5,45.5,29.64,SSE,152,0.0,0.0,86,0.00,,,0.00,32,Wunderground v.1.15,2013-09-21 15:30:00,
2013-09-21 08:40:00,50.2,45.9,29.63,SSE,152,0.0,0.0,85,0.00,,,0.00,51,Wunderground v.1.15,2013-09-21 15:40:00,
2013-09-21 08:50:00,51.4,46.4,29.63,SSE,152,0.0,0.0,83,0.00,,,0.00,153,Wunderground v.1.15,2013-09-21 15:50:00,
2013-09-21 09:00:00,54.4,47.7,29.63,SSE,152,0.0,0.0,78,0.00,,,0.00,336,Wunderground v.1.15,2013-09-21 16:00:00,
2013-09-21 09:10:00,57.6,47.5,29.61,SSE,152,0.0,0.0,69,0.00,,,0.00,385,Wunderground v.1.15,2013-09-21 16:10:00,
2013-09-21 09:20:00,60.4,48.6,29.61,SSE,152,0.0,0.0,65,0.00,,,0.00,413,Wunderground v.1.15,2013-09-21 16:20:00,
2013-09-21 09:30:00,62.0,48.4,29.60,SSE,152,0.0,0.0,61,0.00,,,0.00,436,Wunderground v.1.15,2013-09-21 16:30:00,
2013-09-21 09:40:00,63.1,48.1,29.60,SSE,152,0.0,0.0,58,0.00,,,0.00,469,Wunderground v.1.15,2013-09-21 16:40:00,
2013-09-21 09:50:00,63.9,47.9,29.60,SSE,152,0.0,0.0,56,0.00,,,0.00,490,Wunderground v.1.15,2013-09-21 16:50:00,
2013-09-21 10:00:00,64.8,47.3,29.60,SSE,152,0.0,0.0,53,0.00,,,0.00,517,Wunderground v.1.15,2013-09-21 17:00:00,
2013-09-21 10:10:00,65.6,45.9,29.59,NE,49,0.0,1.0,49,0.00,,,0.00,540,Wunderground v.1.15,2013-09-21 17:10:00,
2013-09-21 10:15:00,66.3,44.9,29.59,NE,48,0.0,1.0,46,0.00,,,0.00,548,Wunderground v.1.15,2013-09-21 17:15:00,
2013-09-21 10:20:00,66.8,44.2,29.59,SW,224,0.0,0.0,44,0.00,,,0.00,557,Wunderground v.1.15,2013-09-21 17:20:00,
2013-09-21 10:30:00,67.1,43.8,29.59,NNW,331,1.0,1.0,43,0.00,,,0.00,529,Wunderground v.1.15,2013-09-21 17:30:00,
2013-09-21 10:40:00,67.3,44.0,29.59,NE,53,1.0,3.0,43,0.00,,,0.00,570,Wunderground v.1.15,2013-09-21 17:40:00,
2013-09-21 10:45:00,67.8,43.9,29.59,NNE,24,1.0,3.0,42,0.00,,,0.00,589,Wunderground v.1.15,2013-09-21 17:45:00,
2013-09-21 10:55:00,68.4,44.4,29.59,WNW,292,1.0,2.0,42,0.00,,,0.00,622,Wunderground v.1.15,2013-09-21 17:55:00,
2013-09-21 11:05:00,68.1,43.5,29.60,SE,137,2.0,3.0,41,0.00,,,0.00,629,Wunderground v.1.15,2013-09-21 18:05:00,
2013-09-21 11:15:00,68.4,43.1,29.60,NW,309,2.0,2.0,40,0.00,,,0.00,647,Wunderground v.1.15,2013-09-21 18:15:00,
2013-09-21 11:25:00,68.6,43.3,29.59,WSW,240,2.0,2.0,40,0.00,,,0.00,652,Wunderground v.1.15,2013-09-21 18:25:00,
2013-09-21 11:35:00,69.1,45.0,29.59,NNW,329,2.0,3.0,42,0.00,,,0.00,656,Wunderground v.1.15,2013-09-21 18:35:00,
2013-09-21 11:45:00,69.6,43.5,29.59,WNW,284,1.0,3.0,39,0.00,,,0.00,670,Wunderground v.1.15,2013-09-21 18:45:00,
2013-09-21 11:55:00,67.1,41.3,29.60,SW,222,2.0,4.0,39,0.00,,,0.00,204,Wunderground v.1.15,2013-09-21 18:55:00,
2013-09-21 12:05:00,64.5,40.9,29.60,NNW,328,2.0,2.0,42,0.00,,,0.00,148,Wunderground v.1.15,2013-09-21 19:05:00,
2013-09-21 12:15:00,64.8,40.5,29.60,West,277,2.0,3.0,41,0.00,,,0.00,424,Wunderground v.1.15,2013-09-21 19:15:00,
2013-09-21 12:20:00,65.6,42.5,29.60,West,274,2.0,2.0,43,0.00,,,0.00,708,Wunderground v.1.15,2013-09-21 19:20:00,
2013-09-21 12:25:00,66.6,42.2,29.60,WNW,299,1.0,2.0,41,0.00,,,0.00,195,Wunderground v.1.15,2013-09-21 19:25:00,
2013-09-21 12:35:00,65.3,39.7,29.60,NNE,17,2.0,2.0,39,0.00,,,0.00,151,Wunderground v.1.15,2013-09-21 19:35:00,
2013-09-21 12:45:00,65.2,40.9,29.59,NW,321,1.0,1.0,41,0.00,,,0.00,118,Wunderground v.1.15,2013-09-21 19:45:00,
2013-09-21 12:55:00,65.5,41.2,29.59,West,263,0.0,0.0,41,0.00,,,0.00,132,Wunderground v.1.15,2013-09-21 19:55:00,
2013-09-21 13:05:00,66.0,39.7,29.59,WNW,290,1.0,2.0,38,0.00,,,0.00,276,Wunderground v.1.15,2013-09-21 20:05:00,
2013-09-21 13:10:00,66.4,40.0,29.59,West,267,1.0,1.0,38,0.00,,,0.00,146,Wunderground v.1.15,2013-09-21 20:10:00,
2013-09-21 13:20:00,66.9,39.1,29.59,NE,38,1.0,1.0,36,0.00,,,0.00,237,Wunderground v.1.15,2013-09-21 20:20:00,
2013-09-21 13:25:00,67.8,37.6,29.59,WNW,292,1.0,1.0,33,0.00,,,0.00,803,Wunderground v.1.15,2013-09-21 20:25:00,
2013-09-21 13:35:00,69.4,38.2,29.58,North,5,1.0,1.0,32,0.00,,,0.00,251,Wunderground v.1.15,2013-09-21 20:35:00,
2013-09-21 13:45:00,70.4,37.5,29.58,WSW,254,2.0,2.0,30,0.00,,,0.00,747,Wunderground v.1.15,2013-09-21 20:45:00,
2013-09-21 13:55:00,71.1,37.2,29.57,NNW,332,2.0,3.0,29,0.00,,,0.00,738,Wunderground v.1.15,2013-09-21 20:55:00,
2013-09-21 14:05:00,72.3,37.4,29.57,WNW,302,2.0,3.0,28,0.00,,,0.00,724,Wunderground v.1.15,2013-09-21 21:05:00,
2013-09-21 14:10:00,72.7,36.8,29.56,NNE,19,2.0,2.0,27,0.00,,,0.00,738,Wunderground v.1.15,2013-09-21 21:10:00,
2013-09-21 14:20:00,72.8,37.8,29.56,NW,317,1.0,1.0,28,0.00,,,0.00,747,Wunderground v.1.15,2013-09-21 21:20:00,
2013-09-21 14:30:00,72.7,36.8,29.56,NW,308,2.0,2.0,27,0.00,,,0.00,670,Wunderground v.1.15,2013-09-21 21:30:00,
2013-09-21 14:40:00,72.5,36.6,29.56,NW,325,2.0,3.0,27,0.00,,,0.00,673,Wunderground v.1.15,2013-09-21 21:40:00,
2013-09-21 14:50:00,72.5,37.5,29.56,NW,321,2.0,2.0,28,0.00,,,0.00,659,Wunderground v.1.15,2013-09-21 21:50:00,
2013-09-21 15:00:00,72.8,37.8,29.56,NW,309,2.0,2.0,28,0.00,,,0.00,643,Wunderground v.1.15,2013-09-21 22:00:00,
2013-09-21 15:10:00,72.7,35.8,29.55,WSW,256,2.0,3.0,26,0.00,,,0.00,608,Wunderground v.1.15,2013-09-21 22:10:00,
2013-09-21 15:20:00,72.7,37.7,29.55,NNW,341,1.0,4.0,28,0.00,,,0.00,563,Wunderground v.1.15,2013-09-21 22:20:00,
2013-09-21 15:30:00,72.0,35.2,29.56,North,355,3.0,5.0,26,0.00,,,0.00,543,Wunderground v.1.15,2013-09-21 22:30:00,
2013-09-21 15:40:00,71.1,36.3,29.56,WSW,257,3.0,4.0,28,0.00,,,0.00,527,Wunderground v.1.15,2013-09-21 22:40:00,
2013-09-21 15:50:00,70.6,36.8,29.55,WSW,254,3.0,3.0,29,0.00,,,0.00,497,Wunderground v.1.15,2013-09-21 22:50:00,
2013-09-21 16:00:00,71.3,36.5,29.55,WSW,241,2.0,3.0,28,0.00,,,0.00,466,Wunderground v.1.15,2013-09-21 23:00:00,
2013-09-21 16:10:00,71.1,35.4,29.56,NW,308,3.0,3.0,27,0.00,,,0.00,450,Wunderground v.1.15,2013-09-21 23:10:00,
2013-09-21 16:20:00,70.6,35.9,29.56,West,274,3.0,3.0,28,0.00,,,0.00,431,Wunderground v.1.15,2013-09-21 23:20:00,
2013-09-21 16:25:00,70.8,36.1,29.56,West,273,2.0,3.0,28,0.00,,,0.00,410,Wunderground v.1.15,2013-09-21 23:25:00,
2013-09-21 16:30:00,70.8,37.0,29.56,WNW,294,2.0,2.0,29,0.00,,,0.00,394,Wunderground v.1.15,2013-09-21 23:30:00,
2013-09-21 16:40:00,70.3,37.4,29.56,WNW,288,2.0,2.0,30,0.00,,,0.00,371,Wunderground v.1.15,2013-09-21 23:40:00,
2013-09-21 16:50:00,69.4,37.4,29.57,WSW,250,2.0,2.0,31,0.00,,,0.00,339,Wunderground v.1.15,2013-09-21 23:50:00,
2013-09-21 16:55:00,69.1,37.2,29.57,WSW,246,2.0,2.0,31,0.00,,,0.00,350,Wunderground v.1.15,2013-09-21 23:55:00,
2013-09-21 17:05:00,68.8,37.7,29.58,West,272,2.0,3.0,32,0.00,,,0.00,332,Wunderground v.1.15,2013-09-22 00:05:00,
2013-09-21 17:15:00,68.3,38.1,29.57,WSW,246,2.0,2.0,33,0.00,,,0.00,290,Wunderground v.1.15,2013-09-22 00:15:00,
2013-09-21 17:25:00,67.3,38.0,29.58,North,355,2.0,10.0,34,0.00,,,0.00,167,Wunderground v.1.15,2013-09-22 00:25:00,
2013-09-21 17:30:00,66.1,37.6,29.58,WSW,249,2.0,2.0,35,0.00,,,0.00,56,Wunderground v.1.15,2013-09-22 00:30:00,
2013-09-21 17:40:00,64.5,38.3,29.59,West,267,1.0,1.0,38,0.00,,,0.00,54,Wunderground v.1.15,2013-09-22 00:40:00,
2013-09-21 17:50:00,63.7,38.3,29.59,NNW,333,1.0,1.0,39,0.00,,,0.00,33,Wunderground v.1.15,2013-09-22 00:50:00,
2013-09-21 18:00:00,62.9,38.2,29.60,West,275,1.0,1.0,40,0.00,,,0.00,28,Wunderground v.1.15,2013-09-22 01:00:00,
2013-09-21 18:05:00,62.4,39.0,29.60,WSW,257,1.0,1.0,42,0.00,,,0.00,28,Wunderground v.1.15,2013-09-22 01:05:00,
2013-09-21 18:10:00,62.0,38.6,29.60,WSW,244,0.0,1.0,42,0.00,,,0.00,21,Wunderground v.1.15,2013-09-22 01:10:00,
2013-09-21 18:20:00,61.3,38.6,29.61,NW,307,1.0,1.0,43,0.00,,,0.00,19,Wunderground v.1.15,2013-09-22 01:20:00,
2013-09-21 18:30:00,60.9,38.2,29.61,WNW,284,1.0,2.0,43,0.00,,,0.00,14,Wunderground v.1.15,2013-09-22 01:30:00,
2013-09-21 18:40:00,60.5,38.5,29.61,West,277,0.0,0.0,44,0.00,,,0.00,9,Wunderground v.1.15,2013-09-22 01:40:00,
2013-09-21 18:50:00,59.9,37.9,29.62,West,280,0.0,0.0,44,0.00,,,0.00,7,Wunderground v.1.15,2013-09-22 01:50:00,
2013-09-21 18:55:00,59.8,37.8,29.62,NNW,327,0.0,1.0,44,0.00,,,0.00,5,Wunderground v.1.15,2013-09-22 01:55:00,
2013-09-21 19:00:00,59.8,38.4,29.62,NW,324,1.0,1.0,45,0.00,,,0.00,0,Wunderground v.1.15,2013-09-22 02:00:00,
2013-09-21 19:10:00,59.5,38.7,29.62,WNW,295,1.0,1.0,46,0.00,,,0.00,0,Wunderground v.1.15,2013-09-22 02:10:00,
2013-09-21 19:20:00,59.0,38.8,29.63,WSW,257,0.0,0.0,47,0.00,,,0.00,0,Wunderground v.1.15,2013-09-22 02:20:00,
2013-09-21 19:25:00,58.9,38.1,29.63,NNW,342,0.0,0.0,46,0.00,,,0.00,0,Wunderground v.1.15,2013-09-22 02:25:00,
2013-09-21 19:35:00,58.7,38.5,29.64,West,259,0.0,1.0,47,0.00,,,0.00,0,Wunderground v.1.15,2013-09-22 02:35:00,
2013-09-21 19:45:00,58.6,39.0,29.64,WNW,283,1.0,1.0,48,0.00,,,0.00,0,Wunderground v.1.15,2013-09-22 02:45:00,
2013-09-21 19:55:00,58.1,38.5,29.65,North,355,0.0,0.0,48,0.00,,,0.00,0,Wunderground v.1.15,2013-09-22 02:55:00,
2013-09-21 20:05:00,57.6,40.1,29.64,NNW,335,0.0,0.0,52,0.00,,,0.00,0,Wunderground v.1.15,2013-09-22 03:05:00,
2013-09-21 20:15:00,56.7,39.7,29.64,NNW,335,0.0,0.0,53,0.00,,,0.00,0,Wunderground v.1.15,2013-09-22 03:15:00,
2013-09-21 20:25:00,55.9,39.0,29.65,NNE,24,0.0,0.0,53,0.00,,,0.00,0,Wunderground v.1.15,2013-09-22 03:25:00,
2013-09-21 20:30:00,55.7,38.8,29.65,WSW,240,0.0,4.0,53,0.00,,,0.00,0,Wunderground v.1.15,2013-09-22 03:30:00,
2013-09-21 20:40:00,56.3,39.4,29.64,NNW,331,1.0,1.0,53,0.00,,,0.00,0,Wunderground v.1.15,2013-09-22 03:40:00,
2013-09-21 20:45:00,56.2,38.8,29.64,WNW,296,0.0,1.0,52,0.00,,,0.00,0,Wunderground v.1.15,2013-09-22 03:45:00,
2013-09-21 20:55:00,56.3,39.4,29.64,NNW,336,0.0,1.0,53,0.00,,,0.00,0,Wunderground v.1.15,2013-09-22 03:55:00,
2013-09-21 21:05:00,56.5,38.1,29.62,West,265,2.0,5.0,50,0.00,,,0.00,0,Wunderground v.1.15,2013-09-22 04:05:00,
2013-09-21 21:10:00,57.0,39.0,29.61,NE,46,2.0,2.0,51,0.00,,,0.00,0,Wunderground v.1.15,2013-09-22 04:10:00,
2013-09-21 21:20:00,56.9,38.9,29.61,NW,325,1.0,1.0,51,0.00,,,0.00,0,Wunderground v.1.15,2013-09-22 04:20:00,
2013-09-21 21:25:00,56.7,38.3,29.61,NW,320,1.0,2.0,50,0.00,,,0.00,0,Wunderground v.1.15,2013-09-22 04:25:00,
2013-09-21 21:35:00,57.0,38.5,29.61,West,279,1.0,2.0,50,0.00,,,0.00,0,Wunderground v.1.15,2013-09-22 04:35:00,
2013-09-21 21:45:00,56.7,38.8,29.61,North,355,0.0,1.0,51,0.00,,,0.00,0,Wunderground v.1.15,2013-09-22 04:45:00,
2013-09-21 21:55:00,55.9,39.0,29.62,NNW,328,1.0,1.0,53,0.00,,,0.00,0,Wunderground v.1.15,2013-09-22 04:55:00,
2013-09-21 22:05:00,55.1,39.2,29.61,NW,323,0.0,1.0,55,0.00,,,0.00,0,Wunderground v.1.15,2013-09-22 05:05:00,
2013-09-21 22:15:00,54.5,39.1,29.61,North,349,0.0,1.0,56,0.00,,,0.00,0,Wunderground v.1.15,2013-09-22 05:15:00,
2013-09-21 22:20:00,54.2,38.8,29.61,North,11,0.0,0.0,56,0.00,,,0.00,0,Wunderground v.1.15,2013-09-22 05:20:00,
2013-09-21 22:30:00,53.6,39.2,29.61,North,360,0.0,0.0,58,0.00,,,0.00,0,Wunderground v.1.15,2013-09-22 05:30:00,
2013-09-21 22:40:00,53.1,39.1,29.62,WNW,296,0.0,0.0,59,0.00,,,0.00,0,Wunderground v.1.15,2013-09-22 05:40:00,
2013-09-21 22:50:00,52.3,39.2,29.62,NNE,23,0.0,0.0,61,0.00,,,0.00,0,Wunderground v.1.15,2013-09-22 05:50:00,
2013-09-21 23:00:00,51.4,39.2,29.62,SSW,210,0.0,0.0,63,0.00,,,0.00,0,Wunderground v.1.15,2013-09-22 06:00:00,
2013-09-21 23:05:00,51.0,38.8,29.63,SSW,207,0.0,0.0,63,0.00,,,0.00,0,Wunderground v.1.15,2013-09-22 06:05:00,
2013-09-21 23:15:00,50.4,38.7,29.64,SSW,207,0.0,0.0,64,0.00,,,0.00,0,Wunderground v.1.15,2013-09-22 06:15:00,
2013-09-21 23:25:00,49.5,38.6,29.64,SSW,207,0.0,0.0,66,0.00,,,0.00,0,Wunderground v.1.15,2013-09-22 06:25:00,
2013-09-21 23:35:00,48.8,38.7,29.64,SSW,213,0.0,0.0,68,0.00,,,0.00,0,Wunderground v.1.15,2013-09-22 06:35:00,
2013-09-21 23:45:00,48.3,38.2,29.64,SSW,213,0.0,0.0,68,0.00,,,0.00,0,Wunderground v.1.15,2013-09-22 06:45:00,
2013-09-21 23:55:00,48.2,38.5,29.64,SSW,213,0.0,0.0,69,0.00,,,0.00,0,Wunderground v.1.15,2013-09-22 06:55:00,